sensor_id;sensor_type;location;lat;lon;timestamp;P1;durP1;ratioP1;P2;durP2;ratioP2
58071;SDS011;60383;46.626;18.866;2022-08-19T11:14:27;8.77;;;4.40;;
58071;SDS011;60383;46.626;18.866;2022-08-19T11:16:55;9.68;;;4.45;;
58071;SDS011;60383;46.626;18.866;2022-08-19T11:19:22;8.02;;;4.53;;
58071;SDS011;60383;46.626;18.866;2022-08-19T11:21:49;9.15;;;4.90;;
58071;SDS011;60383;46.626;18.866;2022-08-19T11:24:19;9.57;;;4.63;;
58071;SDS011;60383;46.626;18.866;2022-08-19T11:26:48;8.20;;;4.55;;
58071;SDS011;60383;46.626;18.866;2022-08-19T11:29:16;8.80;;;4.80;;
58071;SDS011;60383;46.626;18.866;2022-08-19T11:31:45;11.10;;;4.80;;
58071;SDS011;60383;46.626;18.866;2022-08-19T11:34:15;7.10;;;4.50;;
58071;SDS011;60383;46.626;18.866;2022-08-19T11:36:43;8.52;;;4.53;;
58071;SDS011;60383;46.626;18.866;2022-08-19T11:39:10;9.40;;;4.63;;
58071;SDS011;60383;46.626;18.866;2022-08-19T11:41:37;8.48;;;4.63;;
58071;SDS011;60383;46.626;18.866;2022-08-19T11:44:03;8.90;;;4.43;;
58071;SDS011;60383;46.626;18.866;2022-08-19T11:46:30;13.90;;;5.13;;
58071;SDS011;60383;46.626;18.866;2022-08-19T11:49:02;6.68;;;4.43;;
58071;SDS011;60383;46.626;18.866;2022-08-19T11:51:30;10.85;;;4.60;;
58071;SDS011;60383;46.626;18.866;2022-08-19T11:53:56;6.68;;;4.40;;
58071;SDS011;60383;46.626;18.866;2022-08-19T11:56:22;9.27;;;4.78;;
58071;SDS011;60383;46.626;18.866;2022-08-19T11:58:49;12.07;;;4.68;;
58071;SDS011;60383;46.626;18.866;2022-08-19T12:01:17;8.77;;;5.03;;
58071;SDS011;60383;46.626;18.866;2022-08-19T12:03:44;8.32;;;4.80;;
58071;SDS011;60383;46.626;18.866;2022-08-19T12:06:12;9.82;;;4.80;;
58071;SDS011;60383;46.626;18.866;2022-08-19T12:08:40;11.65;;;5.20;;
58071;SDS011;60383;46.626;18.866;2022-08-19T12:11:08;10.20;;;5.15;;
58071;SDS011;60383;46.626;18.866;2022-08-19T12:13:34;14.95;;;5.05;;
58071;SDS011;60383;46.626;18.866;2022-08-19T12:16:00;16.20;;;6.18;;
58071;SDS011;60383;46.626;18.866;2022-08-19T12:18:31;19.52;;;5.60;;
58071;SDS011;60383;46.626;18.866;2022-08-19T12:20:57;21.98;;;6.25;;
58071;SDS011;60383;46.626;18.866;2022-08-19T12:23:25;51.08;;;7.15;;
58071;SDS011;60383;46.626;18.866;2022-08-19T12:25:50;21.05;;;5.75;;
58071;SDS011;60383;46.626;18.866;2022-08-19T12:28:17;23.23;;;5.40;;
58071;SDS011;60383;46.626;18.866;2022-08-19T12:30:47;23.13;;;5.30;;
58071;SDS011;60383;46.626;18.866;2022-08-19T12:33:15;28.60;;;5.28;;
58071;SDS011;60383;46.626;18.866;2022-08-19T12:35:42;16.75;;;4.75;;
58071;SDS011;60383;46.626;18.866;2022-08-19T12:38:09;24.40;;;5.07;;
58071;SDS011;60383;46.626;18.866;2022-08-19T12:40:35;21.50;;;4.43;;
58071;SDS011;60383;46.626;18.866;2022-08-19T12:43:01;26.13;;;4.85;;
58071;SDS011;60383;46.626;18.866;2022-08-19T12:45:27;29.73;;;5.57;;
58071;SDS011;60383;46.626;18.866;2022-08-19T12:47:53;21.92;;;5.15;;
58071;SDS011;60383;46.626;18.866;2022-08-19T12:50:18;21.77;;;4.40;;
58071;SDS011;60383;46.626;18.866;2022-08-19T12:52:44;29.23;;;5.47;;
58071;SDS011;60383;46.626;18.866;2022-08-19T12:55:09;16.75;;;4.95;;
58071;SDS011;60383;46.626;18.866;2022-08-19T12:57:36;15.95;;;3.88;;
58071;SDS011;60383;46.626;18.866;2022-08-19T13:00:06;15.48;;;3.60;;
58071;SDS011;60383;46.626;18.866;2022-08-19T13:02:36;18.02;;;3.40;;
58071;SDS011;60383;46.626;18.866;2022-08-19T13:05:03;20.15;;;3.88;;
58071;SDS011;60383;46.626;18.866;2022-08-19T13:07:31;26.52;;;4.15;;
58071;SDS011;60383;46.626;18.866;2022-08-19T13:09:57;19.65;;;3.50;;
58071;SDS011;60383;46.626;18.866;2022-08-19T13:12:22;21.67;;;3.65;;
58071;SDS011;60383;46.626;18.866;2022-08-19T13:14:51;19.17;;;3.00;;
58071;SDS011;60383;46.626;18.866;2022-08-19T13:17:17;22.23;;;3.17;;
58071;SDS011;60383;46.626;18.866;2022-08-19T13:19:43;19.20;;;3.03;;
58071;SDS011;60383;46.626;18.866;2022-08-19T13:22:08;46.80;;;4.70;;
58071;SDS011;60383;46.626;18.866;2022-08-19T13:24:34;20.23;;;3.13;;
58071;SDS011;60383;46.626;18.866;2022-08-19T13:27:01;17.33;;;3.58;;
58071;SDS011;60383;46.626;18.866;2022-08-19T13:29:27;26.23;;;4.30;;
58071;SDS011;60383;46.626;18.866;2022-08-19T13:32:10;18.48;;;3.15;;
58071;SDS011;60383;46.626;18.866;2022-08-19T13:34:54;17.45;;;3.20;;
58071;SDS011;60383;46.626;18.866;2022-08-19T13:37:20;20.52;;;3.28;;
58071;SDS011;60383;46.626;18.866;2022-08-19T13:40:06;12.10;;;2.80;;
58071;SDS011;60383;46.626;18.866;2022-08-19T13:42:43;13.57;;;3.20;;
58071;SDS011;60383;46.626;18.866;2022-08-19T13:45:12;15.80;;;3.20;;
58071;SDS011;60383;46.626;18.866;2022-08-19T13:47:39;14.88;;;2.95;;
58071;SDS011;60383;46.626;18.866;2022-08-19T13:50:12;14.07;;;3.53;;
58071;SDS011;60383;46.626;18.866;2022-08-19T13:52:40;16.92;;;3.05;;
58071;SDS011;60383;46.626;18.866;2022-08-19T13:55:06;12.38;;;3.08;;
58071;SDS011;60383;46.626;18.866;2022-08-19T13:57:33;10.70;;;2.95;;
58071;SDS011;60383;46.626;18.866;2022-08-19T13:59:59;11.32;;;3.03;;
58071;SDS011;60383;46.626;18.866;2022-08-19T14:02:25;15.43;;;3.13;;
58071;SDS011;60383;46.626;18.866;2022-08-19T14:04:51;13.85;;;3.33;;
58071;SDS011;60383;46.626;18.866;2022-08-19T14:07:17;10.70;;;3.08;;
58071;SDS011;60383;46.626;18.866;2022-08-19T14:09:42;10.70;;;3.28;;
58071;SDS011;60383;46.626;18.866;2022-08-19T14:12:08;14.60;;;3.35;;
58071;SDS011;60383;46.626;18.866;2022-08-19T14:14:39;14.43;;;3.17;;
58071;SDS011;60383;46.626;18.866;2022-08-19T14:17:06;14.23;;;3.20;;
58071;SDS011;60383;46.626;18.866;2022-08-19T14:19:32;12.70;;;3.15;;
58071;SDS011;60383;46.626;18.866;2022-08-19T14:21:58;16.23;;;3.17;;
58071;SDS011;60383;46.626;18.866;2022-08-19T14:24:23;17.15;;;3.10;;
58071;SDS011;60383;46.626;18.866;2022-08-19T14:26:49;12.30;;;3.17;;
58071;SDS011;60383;46.626;18.866;2022-08-19T14:29:14;10.70;;;3.05;;
58071;SDS011;60383;46.626;18.866;2022-08-19T14:31:41;14.00;;;2.90;;
58071;SDS011;60383;46.626;18.866;2022-08-19T14:34:09;11.85;;;2.88;;
58071;SDS011;60383;46.626;18.866;2022-08-19T14:36:35;14.95;;;3.63;;
58071;SDS011;60383;46.626;18.866;2022-08-19T14:39:02;9.88;;;2.70;;
58071;SDS011;60383;46.626;18.866;2022-08-19T14:41:28;13.93;;;3.70;;
58071;SDS011;60383;46.626;18.866;2022-08-19T14:43:55;14.05;;;3.03;;
58071;SDS011;60383;46.626;18.866;2022-08-19T14:46:23;13.77;;;3.67;;
58071;SDS011;60383;46.626;18.866;2022-08-19T14:48:50;10.47;;;2.97;;
58071;SDS011;60383;46.626;18.866;2022-08-19T14:51:16;14.75;;;3.53;;
58071;SDS011;60383;46.626;18.866;2022-08-19T14:53:42;14.82;;;3.55;;
58071;SDS011;60383;46.626;18.866;2022-08-19T14:56:13;13.20;;;3.42;;
58071;SDS011;60383;46.626;18.866;2022-08-19T14:58:40;13.63;;;3.50;;
58071;SDS011;60383;46.626;18.866;2022-08-19T15:01:07;17.08;;;3.35;;
58071;SDS011;60383;46.626;18.866;2022-08-19T15:03:33;19.85;;;3.70;;
58071;SDS011;60383;46.626;18.866;2022-08-19T15:05:59;16.50;;;3.45;;
58071;SDS011;60383;46.626;18.866;2022-08-19T15:08:27;12.55;;;3.78;;
58071;SDS011;60383;46.626;18.866;2022-08-19T15:10:53;10.85;;;3.70;;
58071;SDS011;60383;46.626;18.866;2022-08-19T15:13:19;13.57;;;3.88;;
58071;SDS011;60383;46.626;18.866;2022-08-19T15:15:45;14.43;;;3.92;;
58071;SDS011;60383;46.626;18.866;2022-08-19T15:18:12;12.50;;;3.53;;
58071;SDS011;60383;46.626;18.866;2022-08-19T15:20:38;12.32;;;3.97;;
58071;SDS011;60383;46.626;18.866;2022-08-19T15:23:04;12.82;;;4.20;;
58071;SDS011;60383;46.626;18.866;2022-08-19T15:25:30;11.93;;;4.50;;
58071;SDS011;60383;46.626;18.866;2022-08-19T15:27:57;11.40;;;4.72;;
58071;SDS011;60383;46.626;18.866;2022-08-19T15:30:26;13.65;;;4.55;;
58071;SDS011;60383;46.626;18.866;2022-08-19T15:32:53;10.80;;;3.55;;
58071;SDS011;60383;46.626;18.866;2022-08-19T15:35:21;11.38;;;4.00;;
58071;SDS011;60383;46.626;18.866;2022-08-19T15:37:48;12.35;;;3.95;;
58071;SDS011;60383;46.626;18.866;2022-08-19T15:40:15;14.18;;;7.07;;
58071;SDS011;60383;46.626;18.866;2022-08-19T15:42:41;15.80;;;4.85;;
58071;SDS011;60383;46.626;18.866;2022-08-19T15:45:08;12.88;;;4.05;;
58071;SDS011;60383;46.626;18.866;2022-08-19T15:47:35;10.70;;;4.13;;
58071;SDS011;60383;46.626;18.866;2022-08-19T15:50:09;11.40;;;4.10;;
58071;SDS011;60383;46.626;18.866;2022-08-19T15:52:46;16.35;;;3.92;;
58071;SDS011;60383;46.626;18.866;2022-08-19T15:55:14;12.63;;;4.38;;
58071;SDS011;60383;46.626;18.866;2022-08-19T15:57:40;12.85;;;4.40;;
58071;SDS011;60383;46.626;18.866;2022-08-19T16:00:25;11.95;;;3.83;;
58071;SDS011;60383;46.626;18.866;2022-08-19T16:03:10;15.95;;;5.53;;
58071;SDS011;60383;46.626;18.866;2022-08-19T16:05:58;11.10;;;3.80;;
58071;SDS011;60383;46.626;18.866;2022-08-19T16:08:42;13.32;;;4.07;;
58071;SDS011;60383;46.626;18.866;2022-08-19T16:11:09;13.13;;;4.25;;
58071;SDS011;60383;46.626;18.866;2022-08-19T16:13:37;16.38;;;4.35;;
58071;SDS011;60383;46.626;18.866;2022-08-19T16:16:04;13.35;;;3.67;;
58071;SDS011;60383;46.626;18.866;2022-08-19T16:18:30;10.90;;;4.03;;
58071;SDS011;60383;46.626;18.866;2022-08-19T16:20:57;11.27;;;4.00;;
58071;SDS011;60383;46.626;18.866;2022-08-19T16:23:22;9.52;;;3.78;;
58071;SDS011;60383;46.626;18.866;2022-08-19T16:25:48;12.10;;;4.25;;
58071;SDS011;60383;46.626;18.866;2022-08-19T16:28:13;12.90;;;4.25;;
58071;SDS011;60383;46.626;18.866;2022-08-19T16:30:40;12.80;;;3.90;;
58071;SDS011;60383;46.626;18.866;2022-08-19T16:33:07;11.38;;;4.07;;
58071;SDS011;60383;46.626;18.866;2022-08-19T16:35:33;11.30;;;3.58;;
58071;SDS011;60383;46.626;18.866;2022-08-19T16:37:59;16.58;;;4.43;;
58071;SDS011;60383;46.626;18.866;2022-08-19T16:40:26;9.25;;;4.18;;
58071;SDS011;60383;46.626;18.866;2022-08-19T16:42:52;12.35;;;4.07;;
58071;SDS011;60383;46.626;18.866;2022-08-19T16:45:18;13.95;;;4.53;;
58071;SDS011;60383;46.626;18.866;2022-08-19T16:47:46;13.10;;;4.65;;
58071;SDS011;60383;46.626;18.866;2022-08-19T16:50:11;11.15;;;4.40;;
58071;SDS011;60383;46.626;18.866;2022-08-19T16:52:37;12.60;;;4.35;;
58071;SDS011;60383;46.626;18.866;2022-08-19T16:55:03;11.88;;;4.50;;
58071;SDS011;60383;46.626;18.866;2022-08-19T16:57:30;13.88;;;4.15;;
58071;SDS011;60383;46.626;18.866;2022-08-19T16:59:57;19.98;;;4.03;;
58071;SDS011;60383;46.626;18.866;2022-08-19T17:02:23;16.58;;;4.38;;
58071;SDS011;60383;46.626;18.866;2022-08-19T17:04:49;22.13;;;4.93;;
58071;SDS011;60383;46.626;18.866;2022-08-19T17:07:16;28.13;;;5.25;;
58071;SDS011;60383;46.626;18.866;2022-08-19T17:09:41;17.40;;;4.40;;
58071;SDS011;60383;46.626;18.866;2022-08-19T17:12:07;23.00;;;7.68;;
58071;SDS011;60383;46.626;18.866;2022-08-19T17:14:33;29.20;;;5.70;;
58071;SDS011;60383;46.626;18.866;2022-08-19T17:16:58;16.70;;;4.75;;
58071;SDS011;60383;46.626;18.866;2022-08-19T17:19:24;16.55;;;5.07;;
58071;SDS011;60383;46.626;18.866;2022-08-19T17:21:50;18.98;;;4.32;;
58071;SDS011;60383;46.626;18.866;2022-08-19T17:24:16;19.40;;;4.78;;
58071;SDS011;60383;46.626;18.866;2022-08-19T17:26:41;18.30;;;5.25;;
58071;SDS011;60383;46.626;18.866;2022-08-19T17:29:07;19.48;;;5.25;;
58071;SDS011;60383;46.626;18.866;2022-08-19T17:31:33;20.42;;;5.25;;
58071;SDS011;60383;46.626;18.866;2022-08-19T17:33:59;21.95;;;5.95;;
58071;SDS011;60383;46.626;18.866;2022-08-19T17:36:26;16.35;;;4.95;;
58071;SDS011;60383;46.626;18.866;2022-08-19T17:38:53;16.85;;;4.72;;
58071;SDS011;60383;46.626;18.866;2022-08-19T17:41:20;19.58;;;4.30;;
58071;SDS011;60383;46.626;18.866;2022-08-19T17:43:46;16.55;;;4.60;;
58071;SDS011;60383;46.626;18.866;2022-08-19T17:46:12;16.67;;;4.78;;
58071;SDS011;60383;46.626;18.866;2022-08-19T17:48:45;13.65;;;3.80;;
58071;SDS011;60383;46.626;18.866;2022-08-19T17:51:15;16.45;;;4.32;;
58071;SDS011;60383;46.626;18.866;2022-08-19T17:53:46;19.40;;;4.53;;
58071;SDS011;60383;46.626;18.866;2022-08-19T17:56:14;13.52;;;3.90;;
58071;SDS011;60383;46.626;18.866;2022-08-19T17:58:40;20.27;;;5.50;;
58071;SDS011;60383;46.626;18.866;2022-08-19T18:01:09;14.07;;;4.28;;
58071;SDS011;60383;46.626;18.866;2022-08-19T18:03:37;15.05;;;4.15;;
58071;SDS011;60383;46.626;18.866;2022-08-19T18:06:03;17.58;;;4.55;;
58071;SDS011;60383;46.626;18.866;2022-08-19T18:08:30;18.83;;;4.63;;
58071;SDS011;60383;46.626;18.866;2022-08-19T18:10:57;17.05;;;4.97;;
58071;SDS011;60383;46.626;18.866;2022-08-19T18:13:23;15.98;;;4.32;;
58071;SDS011;60383;46.626;18.866;2022-08-19T18:15:48;13.90;;;3.97;;
58071;SDS011;60383;46.626;18.866;2022-08-19T18:18:14;19.30;;;4.78;;
58071;SDS011;60383;46.626;18.866;2022-08-19T18:20:39;20.30;;;5.22;;
58071;SDS011;60383;46.626;18.866;2022-08-19T18:23:06;17.25;;;5.20;;
58071;SDS011;60383;46.626;18.866;2022-08-19T18:25:31;17.15;;;5.05;;
58071;SDS011;60383;46.626;18.866;2022-08-19T18:27:57;19.30;;;5.30;;
58071;SDS011;60383;46.626;18.866;2022-08-19T18:30:26;19.27;;;4.60;;
58071;SDS011;60383;46.626;18.866;2022-08-19T18:32:58;22.17;;;4.80;;
58071;SDS011;60383;46.626;18.866;2022-08-19T18:35:26;15.23;;;4.80;;
58071;SDS011;60383;46.626;18.866;2022-08-19T18:37:54;17.88;;;5.18;;
58071;SDS011;60383;46.626;18.866;2022-08-19T18:40:22;17.08;;;5.32;;
58071;SDS011;60383;46.626;18.866;2022-08-19T18:43:07;18.10;;;5.60;;
58071;SDS011;60383;46.626;18.866;2022-08-19T18:45:51;20.38;;;5.43;;
58071;SDS011;60383;46.626;18.866;2022-08-19T18:48:35;16.85;;;5.47;;
58071;SDS011;60383;46.626;18.866;2022-08-19T18:51:21;21.83;;;5.78;;
58071;SDS011;60383;46.626;18.866;2022-08-19T18:53:47;15.98;;;5.25;;
58071;SDS011;60383;46.626;18.866;2022-08-19T18:56:14;19.30;;;5.70;;
58071;SDS011;60383;46.626;18.866;2022-08-19T18:58:41;20.30;;;5.85;;
58071;SDS011;60383;46.626;18.866;2022-08-19T19:01:12;17.80;;;6.18;;
58071;SDS011;60383;46.626;18.866;2022-08-19T19:03:45;18.05;;;6.13;;
58071;SDS011;60383;46.626;18.866;2022-08-19T19:06:15;19.95;;;7.15;;
58071;SDS011;60383;46.626;18.866;2022-08-19T19:08:43;19.08;;;7.50;;
58071;SDS011;60383;46.626;18.866;2022-08-19T19:11:09;20.40;;;6.93;;
58071;SDS011;60383;46.626;18.866;2022-08-19T19:13:35;21.58;;;7.18;;
58071;SDS011;60383;46.626;18.866;2022-08-19T19:16:03;20.65;;;7.13;;
58071;SDS011;60383;46.626;18.866;2022-08-19T19:18:30;18.67;;;6.25;;
58071;SDS011;60383;46.626;18.866;2022-08-19T19:20:57;18.85;;;6.63;;
58071;SDS011;60383;46.626;18.866;2022-08-19T19:23:23;19.08;;;6.95;;
58071;SDS011;60383;46.626;18.866;2022-08-19T19:25:49;16.30;;;7.18;;
58071;SDS011;60383;46.626;18.866;2022-08-19T19:28:17;18.70;;;6.97;;
58071;SDS011;60383;46.626;18.866;2022-08-19T19:30:49;13.60;;;6.65;;
58071;SDS011;60383;46.626;18.866;2022-08-19T19:33:15;16.00;;;6.57;;
58071;SDS011;60383;46.626;18.866;2022-08-19T19:35:40;19.27;;;6.78;;
58071;SDS011;60383;46.626;18.866;2022-08-19T19:38:07;17.70;;;7.22;;
58071;SDS011;60383;46.626;18.866;2022-08-19T19:40:33;18.05;;;6.82;;
58071;SDS011;60383;46.626;18.866;2022-08-19T19:42:59;18.42;;;7.57;;
58071;SDS011;60383;46.626;18.866;2022-08-19T19:45:24;17.73;;;7.53;;
58071;SDS011;60383;46.626;18.866;2022-08-19T19:47:50;21.13;;;8.70;;
58071;SDS011;60383;46.626;18.866;2022-08-19T19:50:16;20.98;;;7.47;;
58071;SDS011;60383;46.626;18.866;2022-08-19T19:52:43;15.68;;;7.22;;
58071;SDS011;60383;46.626;18.866;2022-08-19T19:55:09;16.25;;;7.47;;
58071;SDS011;60383;46.626;18.866;2022-08-19T19:57:42;19.95;;;7.32;;
58071;SDS011;60383;46.626;18.866;2022-08-19T20:00:10;22.88;;;7.38;;
58071;SDS011;60383;46.626;18.866;2022-08-19T20:02:37;17.00;;;6.18;;
58071;SDS011;60383;46.626;18.866;2022-08-19T20:05:03;15.93;;;6.28;;
58071;SDS011;60383;46.626;18.866;2022-08-19T20:07:29;16.55;;;5.93;;
58071;SDS011;60383;46.626;18.866;2022-08-19T20:10:13;16.60;;;6.38;;
58071;SDS011;60383;46.626;18.866;2022-08-19T20:12:38;17.35;;;5.88;;
58071;SDS011;60383;46.626;18.866;2022-08-19T20:15:04;18.40;;;6.13;;
58071;SDS011;60383;46.626;18.866;2022-08-19T20:17:30;17.98;;;6.90;;
58071;SDS011;60383;46.626;18.866;2022-08-19T20:19:56;16.63;;;6.47;;
58071;SDS011;60383;46.626;18.866;2022-08-19T20:22:22;20.77;;;8.00;;
58071;SDS011;60383;46.626;18.866;2022-08-19T20:24:49;14.18;;;6.13;;
58071;SDS011;60383;46.626;18.866;2022-08-19T20:27:17;16.75;;;6.45;;
58071;SDS011;60383;46.626;18.866;2022-08-19T20:29:44;15.85;;;6.13;;
58071;SDS011;60383;46.626;18.866;2022-08-19T20:32:10;15.68;;;6.05;;
58071;SDS011;60383;46.626;18.866;2022-08-19T20:34:36;16.98;;;6.25;;
58071;SDS011;60383;46.626;18.866;2022-08-19T20:37:03;16.50;;;6.82;;
58071;SDS011;60383;46.626;18.866;2022-08-19T20:39:29;18.40;;;6.45;;
58071;SDS011;60383;46.626;18.866;2022-08-19T20:41:54;13.60;;;6.10;;
58071;SDS011;60383;46.626;18.866;2022-08-19T20:44:20;16.25;;;6.07;;
58071;SDS011;60383;46.626;18.866;2022-08-19T20:46:46;13.82;;;6.45;;
58071;SDS011;60383;46.626;18.866;2022-08-19T20:49:12;13.60;;;6.30;;
58071;SDS011;60383;46.626;18.866;2022-08-19T20:51:37;14.63;;;6.05;;
58071;SDS011;60383;46.626;18.866;2022-08-19T20:54:03;11.52;;;6.15;;
58071;SDS011;60383;46.626;18.866;2022-08-19T20:56:29;17.52;;;6.18;;
58071;SDS011;60383;46.626;18.866;2022-08-19T20:58:55;19.65;;;6.95;;
58071;SDS011;60383;46.626;18.866;2022-08-19T21:01:20;13.18;;;6.30;;
58071;SDS011;60383;46.626;18.866;2022-08-19T21:03:46;12.10;;;6.65;;
58071;SDS011;60383;46.626;18.866;2022-08-19T21:06:12;15.73;;;6.85;;
58071;SDS011;60383;46.626;18.866;2022-08-19T21:08:39;12.90;;;6.43;;
58071;SDS011;60383;46.626;18.866;2022-08-19T21:11:05;18.02;;;7.05;;
58071;SDS011;60383;46.626;18.866;2022-08-19T21:13:31;16.65;;;7.53;;
58071;SDS011;60383;46.626;18.866;2022-08-19T21:15:57;14.00;;;6.68;;
58071;SDS011;60383;46.626;18.866;2022-08-19T21:18:23;16.65;;;7.10;;
58071;SDS011;60383;46.626;18.866;2022-08-19T21:20:50;15.80;;;7.05;;
58071;SDS011;60383;46.626;18.866;2022-08-19T21:23:19;12.60;;;6.75;;
58071;SDS011;60383;46.626;18.866;2022-08-19T21:25:46;17.05;;;7.43;;
58071;SDS011;60383;46.626;18.866;2022-08-19T21:28:16;13.65;;;7.68;;
58071;SDS011;60383;46.626;18.866;2022-08-19T21:30:41;14.02;;;6.28;;
58071;SDS011;60383;46.626;18.866;2022-08-19T21:33:07;12.60;;;6.35;;
58071;SDS011;60383;46.626;18.866;2022-08-19T21:35:34;13.10;;;5.97;;
58071;SDS011;60383;46.626;18.866;2022-08-19T21:37:59;13.05;;;6.45;;
58071;SDS011;60383;46.626;18.866;2022-08-19T21:40:25;13.73;;;6.35;;
58071;SDS011;60383;46.626;18.866;2022-08-19T21:42:51;14.50;;;6.90;;
58071;SDS011;60383;46.626;18.866;2022-08-19T21:45:17;14.20;;;6.15;;
58071;SDS011;60383;46.626;18.866;2022-08-19T21:47:43;14.50;;;6.50;;
58071;SDS011;60383;46.626;18.866;2022-08-19T21:50:09;14.95;;;6.78;;
58071;SDS011;60383;46.626;18.866;2022-08-19T21:52:36;14.50;;;6.70;;
58071;SDS011;60383;46.626;18.866;2022-08-19T21:55:03;17.48;;;6.70;;
58071;SDS011;60383;46.626;18.866;2022-08-19T21:57:30;14.02;;;6.68;;
58071;SDS011;60383;46.626;18.866;2022-08-19T21:59:56;12.05;;;6.40;;
58071;SDS011;60383;46.626;18.866;2022-08-19T22:02:21;10.15;;;6.78;;
58071;SDS011;60383;46.626;18.866;2022-08-19T22:04:49;15.27;;;7.32;;
58071;SDS011;60383;46.626;18.866;2022-08-19T22:07:17;11.77;;;6.83;;
58071;SDS011;60383;46.626;18.866;2022-08-19T22:09:44;12.75;;;6.68;;
58071;SDS011;60383;46.626;18.866;2022-08-19T22:12:19;14.88;;;6.70;;
58071;SDS011;60383;46.626;18.866;2022-08-19T22:14:48;14.55;;;7.68;;
58071;SDS011;60383;46.626;18.866;2022-08-19T22:17:14;15.07;;;6.97;;
58071;SDS011;60383;46.626;18.866;2022-08-19T22:19:41;13.43;;;7.05;;
58071;SDS011;60383;46.626;18.866;2022-08-19T22:22:08;11.65;;;7.22;;
58071;SDS011;60383;46.626;18.866;2022-08-19T22:24:34;12.10;;;7.15;;
58071;SDS011;60383;46.626;18.866;2022-08-19T22:27:00;12.82;;;6.85;;
58071;SDS011;60383;46.626;18.866;2022-08-19T22:29:26;12.73;;;7.05;;
58071;SDS011;60383;46.626;18.866;2022-08-19T22:31:51;13.52;;;6.55;;
58071;SDS011;60383;46.626;18.866;2022-08-19T22:34:17;19.25;;;7.55;;
58071;SDS011;60383;46.626;18.866;2022-08-19T22:36:42;16.15;;;6.82;;
58071;SDS011;60383;46.626;18.866;2022-08-19T22:39:08;18.67;;;7.72;;
58071;SDS011;60383;46.626;18.866;2022-08-19T22:41:34;12.32;;;7.05;;
58071;SDS011;60383;46.626;18.866;2022-08-19T22:43:59;11.10;;;7.18;;
58071;SDS011;60383;46.626;18.866;2022-08-19T22:46:25;16.33;;;7.47;;
58071;SDS011;60383;46.626;18.866;2022-08-19T22:48:50;18.17;;;7.93;;
58071;SDS011;60383;46.626;18.866;2022-08-19T22:51:16;15.40;;;7.95;;
58071;SDS011;60383;46.626;18.866;2022-08-19T22:54:00;15.23;;;8.70;;
58071;SDS011;60383;46.626;18.866;2022-08-19T22:56:26;14.20;;;8.48;;
58071;SDS011;60383;46.626;18.866;2022-08-19T22:58:52;15.70;;;9.10;;
58071;SDS011;60383;46.626;18.866;2022-08-19T23:01:18;16.83;;;9.23;;
58071;SDS011;60383;46.626;18.866;2022-08-19T23:03:45;15.05;;;9.30;;
58071;SDS011;60383;46.626;18.866;2022-08-19T23:06:11;17.80;;;9.15;;
58071;SDS011;60383;46.626;18.866;2022-08-19T23:08:38;20.33;;;10.05;;
58071;SDS011;60383;46.626;18.866;2022-08-19T23:11:07;21.45;;;9.60;;
58071;SDS011;60383;46.626;18.866;2022-08-19T23:13:35;16.13;;;10.15;;
58071;SDS011;60383;46.626;18.866;2022-08-19T23:16:02;19.20;;;10.20;;
58071;SDS011;60383;46.626;18.866;2022-08-19T23:18:29;20.20;;;10.25;;
58071;SDS011;60383;46.626;18.866;2022-08-19T23:20:55;17.15;;;9.75;;
58071;SDS011;60383;46.626;18.866;2022-08-19T23:23:22;17.38;;;10.35;;
58071;SDS011;60383;46.626;18.866;2022-08-19T23:25:50;19.17;;;10.07;;
58071;SDS011;60383;46.626;18.866;2022-08-19T23:28:17;19.05;;;10.43;;
58071;SDS011;60383;46.626;18.866;2022-08-19T23:31:01;18.80;;;9.52;;
58071;SDS011;60383;46.626;18.866;2022-08-19T23:33:29;17.75;;;9.30;;
58071;SDS011;60383;46.626;18.866;2022-08-19T23:36:01;20.17;;;10.50;;
58071;SDS011;60383;46.626;18.866;2022-08-19T23:38:31;17.90;;;10.20;;
58071;SDS011;60383;46.626;18.866;2022-08-19T23:40:58;22.27;;;10.73;;
58071;SDS011;60383;46.626;18.866;2022-08-19T23:43:25;18.95;;;10.77;;
58071;SDS011;60383;46.626;18.866;2022-08-19T23:45:53;17.73;;;11.02;;
58071;SDS011;60383;46.626;18.866;2022-08-19T23:48:19;25.38;;;11.18;;
58071;SDS011;60383;46.626;18.866;2022-08-19T23:50:45;18.63;;;11.25;;
58071;SDS011;60383;46.626;18.866;2022-08-19T23:53:11;21.60;;;11.30;;
58071;SDS011;60383;46.626;18.866;2022-08-19T23:55:37;18.33;;;10.18;;
58071;SDS011;60383;46.626;18.866;2022-08-19T23:58:05;17.73;;;10.43;;
